createdAt,value
2023-05-05T00:00:21.967Z,1000.87
2023-05-05T00:01:21.926Z,1000.82
2023-05-05T00:02:21.923Z,1000.85
2023-05-05T00:03:21.995Z,1000.87
2023-05-05T00:04:22.045Z,1000.82
2023-05-05T00:05:21.885Z,1000.85
2023-05-05T00:06:21.853Z,1000.83
2023-05-05T00:07:21.866Z,1000.82
2023-05-05T00:08:21.842Z,1000.82
2023-05-05T00:09:21.861Z,1000.83
2023-05-05T00:10:21.819Z,1000.78
2023-05-05T00:11:21.833Z,1000.78
2023-05-05T00:12:21.815Z,1000.78
2023-05-05T00:13:21.775Z,1000.78
2023-05-05T00:14:21.805Z,1000.75
2023-05-05T00:15:21.784Z,1000.79
2023-05-05T00:16:21.763Z,1000.82
2023-05-05T00:17:21.742Z,1000.76
2023-05-05T00:18:21.726Z,1000.79
2023-05-05T00:19:21.717Z,1000.74
2023-05-05T00:20:21.714Z,1000.78
2023-05-05T00:21:21.672Z,1000.75
2023-05-05T00:22:21.700Z,1000.76
2023-05-05T00:23:21.676Z,1000.73
2023-05-05T00:24:21.673Z,1000.71
2023-05-05T00:25:21.681Z,1000.75
2023-05-05T00:26:21.684Z,1000.69
2023-05-05T00:27:21.625Z,1000.70
2023-05-05T00:28:21.630Z,1000.70
2023-05-05T00:29:21.596Z,1000.71
2023-05-05T00:30:21.586Z,1000.70
2023-05-05T00:31:21.623Z,1000.69
2023-05-05T00:32:21.596Z,1000.70
2023-05-05T00:33:21.592Z,1000.72
2023-05-05T00:34:21.558Z,1000.65
2023-05-05T00:35:21.534Z,1000.70
2023-05-05T00:36:21.522Z,1000.65
2023-05-05T00:37:21.565Z,1000.65
2023-05-05T00:38:21.541Z,1000.65
2023-05-05T00:39:21.505Z,1000.66
2023-05-05T00:40:21.475Z,1000.69
2023-05-05T00:41:21.504Z,1000.69
2023-05-05T00:42:21.467Z,1000.68
2023-05-05T00:43:21.454Z,1000.67
2023-05-05T00:44:21.453Z,1000.68
2023-05-05T00:45:21.409Z,1000.65
2023-05-05T00:46:21.429Z,1000.66
2023-05-05T00:47:21.416Z,1000.69
2023-05-05T00:48:21.399Z,1000.73
2023-05-05T00:49:21.390Z,1000.71
2023-05-05T00:50:21.363Z,1000.79
2023-05-05T00:51:21.348Z,1000.79
2023-05-05T00:52:21.354Z,1000.76
2023-05-05T00:53:21.344Z,1000.74
2023-05-05T00:54:21.317Z,1000.73
2023-05-05T00:55:21.347Z,1000.74
2023-05-05T00:56:21.294Z,1000.73
2023-05-05T00:57:21.279Z,1000.72
2023-05-05T00:58:21.284Z,1000.70
2023-05-05T00:59:21.245Z,1000.72
2023-05-05T01:00:21.273Z,1000.72
2023-05-05T01:01:21.310Z,1000.70
2023-05-05T01:02:21.229Z,1000.68
2023-05-05T01:03:21.264Z,1000.70
2023-05-05T01:04:21.225Z,1000.69
2023-05-05T01:05:21.182Z,1000.71
2023-05-05T01:06:21.164Z,1000.70
2023-05-05T01:07:21.218Z,1000.67
2023-05-05T01:08:21.137Z,1000.68
2023-05-05T01:09:21.133Z,1000.70
2023-05-05T01:10:21.240Z,1000.71
2023-05-05T01:11:21.125Z,1000.66
2023-05-05T01:12:21.150Z,1000.70
2023-05-05T01:13:21.125Z,1000.69
2023-05-05T01:14:21.086Z,1000.66
2023-05-05T01:15:21.066Z,1000.63
2023-05-05T01:16:21.148Z,1000.65
2023-05-05T01:17:21.077Z,1000.65
2023-05-05T01:18:21.051Z,1000.64
2023-05-05T01:19:21.024Z,1000.66
2023-05-05T01:20:21.033Z,1000.60
2023-05-05T01:21:21.003Z,1000.65
2023-05-05T01:22:21.041Z,1000.64
2023-05-05T01:23:20.986Z,1000.62
2023-05-05T01:24:20.954Z,1000.60
2023-05-05T01:25:20.941Z,1000.60
2023-05-05T01:26:20.965Z,1000.63
2023-05-05T01:27:20.929Z,1000.60
2023-05-05T01:28:20.938Z,1000.59
2023-05-05T01:29:20.914Z,1000.62
2023-05-05T01:30:20.900Z,1000.60
2023-05-05T01:31:20.918Z,1000.60
2023-05-05T01:32:20.909Z,1000.56
2023-05-05T01:33:20.889Z,1000.58
2023-05-05T01:34:20.841Z,1000.49
2023-05-05T01:35:20.844Z,1000.49
2023-05-05T01:36:20.811Z,1000.50
2023-05-05T01:37:20.794Z,1000.51
2023-05-05T01:38:20.809Z,1000.56
2023-05-05T01:39:20.781Z,1000.49
2023-05-05T01:40:20.797Z,1000.49
2023-05-05T01:41:20.786Z,1000.52
2023-05-05T01:42:20.765Z,1000.53
2023-05-05T01:43:20.786Z,1000.57
2023-05-05T01:44:20.729Z,1000.51
2023-05-05T01:45:20.720Z,1000.56
2023-05-05T01:46:20.744Z,1000.57
2023-05-05T01:47:20.712Z,1000.58
2023-05-05T01:48:20.700Z,1000.56
2023-05-05T01:49:20.690Z,1000.57
2023-05-05T01:50:20.658Z,1000.61
2023-05-05T01:51:20.628Z,1000.55
2023-05-05T01:52:20.677Z,1000.54
2023-05-05T01:53:20.668Z,1000.61
2023-05-05T01:54:20.622Z,1000.53
2023-05-05T01:55:20.623Z,1000.55
2023-05-05T01:56:20.588Z,1000.53
2023-05-05T01:57:20.577Z,1000.53
2023-05-05T01:58:20.597Z,1000.47
2023-05-05T01:59:20.565Z,1000.48
2023-05-05T02:00:20.551Z,1000.40
2023-05-05T02:01:20.576Z,1000.44
2023-05-05T02:02:20.534Z,1000.39
2023-05-05T02:03:20.679Z,1000.45
2023-05-05T02:04:20.505Z,1000.46
2023-05-05T02:05:20.489Z,1000.50
2023-05-05T02:06:20.522Z,1000.50
2023-05-05T02:07:20.461Z,1000.50
2023-05-05T02:08:20.431Z,1000.49
2023-05-05T02:09:20.455Z,1000.48
2023-05-05T02:10:20.428Z,1000.45
2023-05-05T02:11:20.465Z,1000.47
2023-05-05T02:12:20.427Z,1000.45
2023-05-05T02:13:20.509Z,1000.46
2023-05-05T02:14:20.374Z,1000.46
2023-05-05T02:15:20.362Z,1000.43
2023-05-05T02:16:20.558Z,1000.45
2023-05-05T02:17:20.364Z,1000.41
2023-05-05T02:18:20.321Z,1000.44
2023-05-05T02:19:20.322Z,1000.46
2023-05-05T02:20:20.319Z,1000.43
2023-05-05T02:21:20.321Z,1000.42
2023-05-05T02:22:20.321Z,1000.43
2023-05-05T02:23:20.306Z,1000.44
2023-05-05T02:24:20.295Z,1000.45
2023-05-05T02:25:20.269Z,1000.37
2023-05-05T02:26:20.293Z,1000.42
2023-05-05T02:27:20.222Z,1000.37
2023-05-05T02:28:20.226Z,1000.42
2023-05-05T02:29:20.214Z,1000.42
2023-05-05T02:30:20.222Z,1000.41
2023-05-05T02:31:20.278Z,1000.37
2023-05-05T02:32:20.180Z,1000.39
2023-05-05T02:33:20.179Z,1000.44
2023-05-05T02:34:20.169Z,1000.43
2023-05-05T02:35:20.139Z,1000.39
2023-05-05T02:36:20.121Z,1000.47
2023-05-05T02:37:20.115Z,1000.40
2023-05-05T02:38:20.126Z,1000.44
2023-05-05T02:39:20.135Z,1000.40
2023-05-05T02:40:20.066Z,1000.36
2023-05-05T02:41:20.060Z,1000.40
2023-05-05T02:42:20.077Z,1000.40
2023-05-05T02:43:20.112Z,1000.36
2023-05-05T02:44:20.056Z,1000.38
2023-05-05T02:45:20.065Z,1000.38
2023-05-05T02:46:20.066Z,1000.42
2023-05-05T02:47:19.990Z,1000.33
2023-05-05T02:48:20.011Z,1000.39
2023-05-05T02:49:19.977Z,1000.36
2023-05-05T02:50:19.964Z,1000.39
2023-05-05T02:51:19.969Z,1000.42
2023-05-05T02:52:19.934Z,1000.37
2023-05-05T02:53:19.972Z,1000.41
2023-05-05T02:54:19.901Z,1000.42
2023-05-05T02:55:19.890Z,1000.40
2023-05-05T02:56:19.918Z,1000.44
2023-05-05T02:57:19.880Z,1000.37
2023-05-05T02:58:19.907Z,1000.40
2023-05-05T02:59:19.854Z,1000.43
2023-05-05T03:00:19.839Z,1000.37
2023-05-05T03:01:19.853Z,1000.43
2023-05-05T03:02:20.006Z,1000.39
2023-05-05T03:03:19.887Z,1000.40
2023-05-05T03:04:19.793Z,1000.42
2023-05-05T03:05:19.778Z,1000.37
2023-05-05T03:06:19.807Z,1000.36
2023-05-05T03:07:19.751Z,1000.34
2023-05-05T03:08:19.782Z,1000.37
2023-05-05T03:09:19.727Z,1000.33
2023-05-05T03:10:19.749Z,1000.31
2023-05-05T03:11:19.718Z,1000.32
2023-05-05T03:12:19.741Z,1000.29
2023-05-05T03:13:19.699Z,1000.29
2023-05-05T03:14:19.692Z,1000.32
2023-05-05T03:15:19.655Z,1000.31
2023-05-05T03:16:19.682Z,1000.30
2023-05-05T03:17:19.685Z,1000.30
2023-05-05T03:18:19.636Z,1000.32
2023-05-05T03:19:19.644Z,1000.32
2023-05-05T03:20:19.612Z,1000.32
2023-05-05T03:21:19.589Z,1000.31
2023-05-05T03:22:19.581Z,1000.33
2023-05-05T03:23:19.603Z,1000.29
2023-05-05T03:24:19.554Z,1000.31
2023-05-05T03:25:19.566Z,1000.30
2023-05-05T03:26:19.593Z,1000.29
2023-05-05T03:27:19.516Z,1000.32
2023-05-05T03:28:19.531Z,1000.29
2023-05-05T03:29:19.504Z,1000.29
2023-05-05T03:30:19.507Z,1000.28
2023-05-05T03:31:19.574Z,1000.30
2023-05-05T03:32:19.490Z,1000.28
2023-05-05T03:33:19.460Z,1000.27
2023-05-05T03:34:19.446Z,1000.31
2023-05-05T03:35:19.503Z,1000.29
2023-05-05T03:36:19.442Z,1000.29
2023-05-05T03:37:19.419Z,1000.31
2023-05-05T03:38:19.401Z,1000.26
2023-05-05T03:39:19.389Z,1000.32
2023-05-05T03:40:19.445Z,1000.27
2023-05-05T03:41:19.393Z,1000.27
2023-05-05T03:42:19.363Z,1000.30
2023-05-05T03:43:19.330Z,1000.32
2023-05-05T03:44:19.359Z,1000.31
2023-05-05T03:45:19.322Z,1000.40
2023-05-05T03:46:19.350Z,1000.34
2023-05-05T03:47:19.284Z,1000.39
2023-05-05T03:48:19.306Z,1000.32
2023-05-05T03:49:19.299Z,1000.32
2023-05-05T03:50:19.253Z,1000.31
2023-05-05T03:51:19.251Z,1000.24
2023-05-05T03:52:19.255Z,1000.27
2023-05-05T03:53:19.256Z,1000.24
2023-05-05T03:54:19.200Z,1000.23
2023-05-05T03:55:19.219Z,1000.24
2023-05-05T03:56:19.202Z,1000.22
2023-05-05T03:57:19.188Z,1000.25
2023-05-05T03:58:19.194Z,1000.26
2023-05-05T03:59:19.203Z,1000.27
2023-05-05T04:00:19.150Z,1000.28
2023-05-05T04:01:19.141Z,1000.30
2023-05-05T04:02:19.193Z,1000.27
2023-05-05T04:03:19.306Z,1000.26
2023-05-05T04:04:19.294Z,1000.23
2023-05-05T04:05:19.116Z,1000.24
2023-05-05T04:06:19.088Z,1000.21
2023-05-05T04:07:19.114Z,1000.26
2023-05-05T04:08:19.060Z,1000.23
2023-05-05T04:09:19.079Z,1000.32
2023-05-05T04:10:19.037Z,1000.30
2023-05-05T04:11:19.029Z,1000.28
2023-05-05T04:12:19.020Z,1000.32
2023-05-05T04:13:19.026Z,1000.28
2023-05-05T04:14:18.996Z,1000.24
2023-05-05T04:15:18.978Z,1000.29
2023-05-05T04:16:19.010Z,1000.27
2023-05-05T04:17:18.961Z,1000.32
2023-05-05T04:18:18.931Z,1000.32
2023-05-05T04:19:18.974Z,1000.35
2023-05-05T04:20:18.924Z,1000.37
2023-05-05T04:21:18.932Z,1000.36
2023-05-05T04:22:18.893Z,1000.39
2023-05-05T04:23:18.892Z,1000.44
2023-05-05T04:24:18.860Z,1000.41
2023-05-05T04:25:18.897Z,1000.43
2023-05-05T04:26:18.885Z,1000.42
2023-05-05T04:27:18.851Z,1000.44
2023-05-05T04:28:20.941Z,1000.40
2023-05-05T04:29:18.793Z,1000.33
2023-05-05T04:30:18.799Z,1000.34
2023-05-05T04:31:18.883Z,1000.34
2023-05-05T04:32:18.772Z,1000.35
2023-05-05T04:33:18.799Z,1000.28
2023-05-05T04:34:18.754Z,1000.34
2023-05-05T04:35:18.758Z,1000.39
2023-05-05T04:36:18.760Z,1000.35
2023-05-05T04:37:18.756Z,1000.30
2023-05-05T04:38:18.742Z,1000.33
2023-05-05T04:39:18.684Z,1000.34
2023-05-05T04:40:18.690Z,1000.23
2023-05-05T04:41:18.674Z,1000.23
2023-05-05T04:42:18.716Z,1000.24
2023-05-05T04:43:18.648Z,1000.22
2023-05-05T04:44:18.629Z,1000.19
2023-05-05T04:45:18.612Z,1000.24
2023-05-05T04:46:18.650Z,1000.24
2023-05-05T04:47:18.631Z,1000.21
2023-05-05T04:48:18.621Z,1000.26
2023-05-05T04:49:18.609Z,1000.28
2023-05-05T04:50:18.564Z,1000.27
2023-05-05T04:51:18.553Z,1000.33
2023-05-05T04:52:18.566Z,1000.36
2023-05-05T04:53:18.527Z,1000.33
2023-05-05T04:54:18.522Z,1000.34
2023-05-05T04:55:18.546Z,1000.28
2023-05-05T04:56:18.506Z,1000.29
2023-05-05T04:57:18.505Z,1000.29
2023-05-05T04:58:18.481Z,1000.36
2023-05-05T04:59:18.500Z,1000.31
2023-05-05T05:00:18.435Z,1000.29
2023-05-05T05:01:18.435Z,1000.26
2023-05-05T05:02:18.474Z,1000.37
2023-05-05T05:03:18.499Z,1000.38
2023-05-05T05:04:18.422Z,1000.39
2023-05-05T05:05:18.408Z,1000.36
2023-05-05T05:06:18.380Z,1000.36
2023-05-05T05:07:18.477Z,1000.37
2023-05-05T05:08:18.373Z,1000.31
2023-05-05T05:09:18.345Z,1000.35
2023-05-05T05:10:18.347Z,1000.38
2023-05-05T05:11:18.322Z,1000.38
2023-05-05T05:12:18.333Z,1000.42
2023-05-05T05:13:18.495Z,1000.41
2023-05-05T05:14:18.293Z,1000.42
2023-05-05T05:15:18.277Z,1000.42
2023-05-05T05:16:18.284Z,1000.42
2023-05-05T05:17:18.254Z,1000.37
2023-05-05T05:18:18.266Z,1000.33
2023-05-05T05:19:18.262Z,1000.32
2023-05-05T05:20:18.228Z,1000.38
2023-05-05T05:21:18.234Z,1000.28
2023-05-05T05:22:18.219Z,1000.35
2023-05-05T05:23:18.214Z,1000.35
2023-05-05T05:24:18.183Z,1000.35
2023-05-05T05:25:18.190Z,1000.28
2023-05-05T05:26:18.164Z,1000.26
2023-05-05T05:27:18.163Z,1000.22
2023-05-05T05:28:18.222Z,1000.21
2023-05-05T05:29:18.123Z,1000.17
2023-05-05T05:30:18.114Z,1000.18
2023-05-05T05:31:18.113Z,1000.21
2023-05-05T05:32:18.093Z,1000.21
2023-05-05T05:33:18.104Z,1000.23
2023-05-05T05:34:18.048Z,1000.24
2023-05-05T05:35:18.037Z,1000.28
2023-05-05T05:36:18.039Z,1000.26
2023-05-05T05:37:18.037Z,1000.30
2023-05-05T05:38:18.029Z,1000.32
2023-05-05T05:39:18.018Z,1000.35
2023-05-05T05:40:17.998Z,1000.30
2023-05-05T05:41:18.013Z,1000.30
2023-05-05T05:42:17.964Z,1000.26
2023-05-05T05:43:17.946Z,1000.24
2023-05-05T05:44:17.933Z,1000.23
2023-05-05T05:45:17.923Z,1000.19
2023-05-05T05:46:17.993Z,1000.18
2023-05-05T05:47:17.910Z,1000.16
2023-05-05T05:48:17.903Z,1000.12
2023-05-05T05:49:17.870Z,1000.20
2023-05-05T05:50:17.890Z,1000.25
2023-05-05T05:51:18.885Z,1000.26
2023-05-05T05:52:17.879Z,1000.30
2023-05-05T05:53:17.841Z,1000.31
2023-05-05T05:54:17.823Z,1000.32
2023-05-05T05:55:17.850Z,1000.30
2023-05-05T05:56:17.789Z,1000.22
2023-05-05T05:57:17.796Z,1000.21
2023-05-05T05:58:17.768Z,1000.20
2023-05-05T05:59:17.778Z,1000.16
2023-05-05T06:00:17.829Z,1000.21
2023-05-05T06:01:17.733Z,1000.24
2023-05-05T06:02:17.866Z,1000.23
2023-05-05T06:03:17.803Z,1000.26
2023-05-05T06:04:17.732Z,1000.26
2023-05-05T06:05:17.722Z,1000.26
2023-05-05T06:06:17.716Z,1000.28
2023-05-05T06:07:17.906Z,1000.28
2023-05-05T06:08:17.674Z,1000.31
2023-05-05T06:09:17.665Z,1000.26
2023-05-05T06:10:29.827Z,1000.35
2023-05-05T06:11:18.618Z,1000.36
2023-05-05T06:12:17.643Z,1000.33
2023-05-05T06:13:17.642Z,1000.35
2023-05-05T06:14:19.492Z,1000.36
2023-05-05T06:15:17.587Z,1000.37
2023-05-05T06:16:17.631Z,1000.29
2023-05-05T06:17:17.580Z,1000.29
2023-05-05T06:18:17.645Z,1000.30
2023-05-05T06:19:17.538Z,1000.28
2023-05-05T06:20:17.529Z,1000.31
2023-05-05T06:21:17.502Z,1000.24
2023-05-05T06:22:17.497Z,1000.23
2023-05-05T06:23:17.500Z,1000.25
2023-05-05T06:24:17.466Z,1000.22
2023-05-05T06:25:17.482Z,1000.20
2023-05-05T06:26:17.474Z,1000.17
2023-05-05T06:27:17.454Z,1000.17
2023-05-05T06:28:17.447Z,1000.15
2023-05-05T06:29:17.426Z,1000.15
2023-05-05T06:30:17.418Z,1000.09
2023-05-05T06:31:17.407Z,1000.08
2023-05-05T06:32:17.367Z,1000.05
2023-05-05T06:33:17.381Z,1000.07
2023-05-05T06:34:17.362Z,1000.09
2023-05-05T06:35:17.366Z,1000.07
2023-05-05T06:36:17.352Z,1000.12
2023-05-05T06:37:17.316Z,1000.09
2023-05-05T06:38:17.345Z,1000.10
2023-05-05T06:39:17.290Z,1000.06
2023-05-05T06:40:17.315Z,1000.07
2023-05-05T06:41:17.275Z,1000.05
2023-05-05T06:42:17.266Z,1000.01
2023-05-05T06:43:17.281Z,1000.05
2023-05-05T06:44:17.250Z,1000.04
2023-05-05T06:45:17.267Z,1000.01
2023-05-05T06:46:17.262Z,999.99
2023-05-05T06:47:17.240Z,1000.03
2023-05-05T06:48:17.199Z,1000.03
2023-05-05T06:49:17.191Z,999.95
2023-05-05T06:50:17.460Z,999.95
2023-05-05T06:51:17.644Z,999.96
2023-05-05T06:52:17.182Z,999.97
2023-05-05T06:53:17.151Z,999.97
2023-05-05T06:54:17.136Z,999.93
2023-05-05T06:55:17.113Z,999.93
2023-05-05T06:56:17.156Z,999.90
2023-05-05T06:57:17.118Z,999.92
2023-05-05T06:58:17.089Z,999.88
2023-05-05T06:59:17.108Z,999.86
2023-05-05T07:00:17.062Z,999.84
2023-05-05T07:01:17.096Z,999.86
2023-05-05T07:02:17.071Z,999.81
2023-05-05T07:03:17.209Z,999.83
2023-05-05T07:04:17.126Z,999.85
2023-05-05T07:05:17.033Z,999.81
2023-05-05T07:06:16.996Z,999.89
2023-05-05T07:07:17.045Z,999.87
2023-05-05T07:08:16.982Z,999.90
2023-05-05T07:09:17.486Z,999.88
2023-05-05T07:10:16.968Z,999.85
2023-05-05T07:11:16.954Z,999.89
2023-05-05T07:12:16.976Z,999.89
2023-05-05T07:13:17.002Z,999.90
2023-05-05T07:14:16.912Z,999.93
2023-05-05T07:15:28.098Z,999.90
2023-05-05T07:16:18.198Z,999.94
2023-05-05T07:17:16.897Z,999.91
2023-05-05T07:18:16.892Z,999.86
2023-05-05T07:19:16.867Z,999.79
2023-05-05T07:20:16.832Z,999.77
2023-05-05T07:21:16.864Z,999.71
2023-05-05T07:22:16.858Z,999.69
2023-05-05T07:23:16.800Z,999.66
2023-05-05T07:24:17.053Z,999.65
2023-05-05T07:25:16.809Z,999.68
2023-05-05T07:26:16.811Z,999.67
2023-05-05T07:27:16.768Z,999.65
2023-05-05T07:28:16.830Z,999.65
2023-05-05T07:29:16.780Z,999.68
2023-05-05T07:30:18.682Z,999.66
2023-05-05T07:31:16.722Z,999.68
2023-05-05T07:32:16.947Z,999.64
2023-05-05T07:33:16.714Z,999.63
2023-05-05T07:34:16.723Z,999.67
2023-05-05T07:35:16.703Z,999.66
2023-05-05T07:36:16.658Z,999.65
2023-05-05T07:37:16.656Z,999.64
2023-05-05T07:38:16.693Z,999.65
2023-05-05T07:39:16.675Z,999.65
2023-05-05T07:40:16.695Z,999.66
2023-05-05T07:41:16.620Z,999.64
2023-05-05T07:42:16.644Z,999.66
2023-05-05T07:43:16.616Z,999.64
2023-05-05T07:44:16.581Z,999.63
2023-05-05T07:45:16.625Z,999.60
2023-05-05T07:46:19.734Z,999.60
2023-05-05T07:47:16.560Z,999.56
2023-05-05T07:48:16.539Z,999.50
2023-05-05T07:49:16.514Z,999.53
2023-05-05T07:50:16.526Z,999.50
2023-05-05T07:51:16.597Z,999.54
2023-05-05T07:52:16.504Z,999.47
2023-05-05T07:53:16.526Z,999.55
2023-05-05T07:54:16.480Z,999.51
2023-05-05T07:55:16.481Z,999.49
2023-05-05T07:56:16.499Z,999.46
2023-05-05T07:57:16.465Z,999.48
2023-05-05T07:58:16.450Z,999.47
2023-05-05T07:59:16.454Z,999.53
2023-05-05T08:00:16.468Z,999.49
2023-05-05T08:01:16.404Z,999.52
2023-05-05T08:02:16.434Z,999.53
2023-05-05T08:03:16.524Z,999.56
2023-05-05T08:04:16.411Z,999.50
2023-05-05T08:05:16.367Z,999.54
2023-05-05T08:06:16.384Z,999.52
2023-05-05T08:07:16.330Z,999.48
2023-05-05T08:08:16.339Z,999.52
2023-05-05T08:09:19.340Z,999.51
2023-05-05T08:10:16.331Z,999.52
2023-05-05T08:11:16.345Z,999.52
2023-05-05T08:12:16.298Z,999.43
2023-05-05T08:13:16.330Z,999.45
2023-05-05T08:14:16.306Z,999.40
2023-05-05T08:15:16.249Z,999.40
2023-05-05T08:16:16.354Z,999.38
2023-05-05T08:17:16.509Z,999.38
2023-05-05T08:18:16.236Z,999.34
2023-05-05T08:19:28.754Z,999.34
2023-05-05T08:20:17.244Z,999.31
2023-05-05T08:21:16.228Z,999.28
2023-05-05T08:22:16.216Z,999.27
2023-05-05T08:23:16.165Z,999.29
2023-05-05T08:24:16.162Z,999.25
2023-05-05T08:25:16.177Z,999.22
2023-05-05T08:26:16.173Z,999.22
2023-05-05T08:27:16.156Z,999.16
2023-05-05T08:28:16.130Z,999.18
2023-05-05T08:29:16.128Z,999.13
2023-05-05T08:30:16.104Z,999.14
2023-05-05T08:31:16.172Z,999.06
2023-05-05T08:32:16.087Z,999.02
2023-05-05T08:33:16.169Z,999.01
2023-05-05T08:34:16.067Z,998.99
2023-05-05T08:35:16.071Z,999.01
2023-05-05T08:36:16.114Z,998.97
2023-05-05T08:37:16.067Z,998.94
2023-05-05T08:38:16.053Z,998.92
2023-05-05T08:39:16.018Z,998.94
2023-05-05T08:40:16.025Z,998.86
2023-05-05T08:41:16.017Z,998.84
2023-05-05T08:42:25.810Z,998.84
2023-05-05T08:43:17.006Z,998.88
2023-05-05T08:44:15.966Z,998.88
2023-05-05T08:45:15.986Z,998.86
2023-05-05T08:46:16.065Z,998.88
2023-05-05T08:47:15.967Z,998.90
2023-05-05T08:48:15.982Z,998.93
2023-05-05T08:49:15.902Z,998.89
2023-05-05T08:50:15.923Z,998.86
2023-05-05T08:51:15.919Z,998.80
2023-05-05T08:52:15.936Z,998.78
2023-05-05T08:53:15.933Z,998.77
2023-05-05T08:54:15.878Z,998.75
2023-05-05T08:55:15.918Z,998.75
2023-05-05T08:56:15.882Z,998.70
2023-05-05T08:57:15.846Z,998.68
2023-05-05T08:58:15.844Z,998.66
2023-05-05T08:59:15.809Z,998.68
2023-05-05T09:00:15.792Z,998.66
2023-05-05T09:01:15.858Z,998.68
2023-05-05T09:02:15.844Z,998.63
2023-05-05T09:03:16.041Z,998.64
2023-05-05T09:04:16.771Z,998.66
2023-05-05T09:05:15.798Z,998.61
2023-05-05T09:06:15.774Z,998.61
2023-05-05T09:07:15.756Z,998.60
2023-05-05T09:08:15.742Z,998.53
2023-05-05T09:09:16.747Z,998.58
2023-05-05T09:10:15.743Z,998.54
2023-05-05T09:11:15.677Z,998.57
2023-05-05T09:12:15.709Z,998.57
2023-05-05T09:13:15.749Z,998.55
2023-05-05T09:14:15.675Z,998.51
2023-05-05T09:15:15.662Z,998.53
2023-05-05T09:16:16.693Z,998.52
2023-05-05T09:17:15.696Z,998.54
2023-05-05T09:18:15.641Z,998.54
2023-05-05T09:19:15.614Z,998.57
2023-05-05T09:20:16.688Z,998.55
2023-05-05T09:21:15.631Z,998.51
2023-05-05T09:22:15.621Z,998.46
2023-05-05T09:23:15.604Z,998.48
2023-05-05T09:24:15.580Z,998.45
2023-05-05T09:25:15.563Z,998.43
2023-05-05T09:26:15.573Z,998.52
2023-05-05T09:27:15.563Z,998.53
2023-05-05T09:28:15.567Z,998.50
2023-05-05T09:29:15.536Z,998.48
2023-05-05T09:30:15.498Z,998.46
2023-05-05T09:31:15.518Z,998.50
2023-05-05T09:32:15.482Z,998.55
2023-05-05T09:33:15.543Z,998.57
2023-05-05T09:34:15.816Z,998.60
2023-05-05T09:35:15.486Z,998.58
2023-05-05T09:36:15.442Z,998.57
2023-05-05T09:37:15.441Z,998.59
2023-05-05T09:38:15.480Z,998.59
2023-05-05T09:39:15.441Z,998.63
2023-05-05T09:40:15.410Z,998.67
2023-05-05T09:41:15.400Z,998.58
2023-05-05T09:42:15.416Z,998.57
2023-05-05T09:43:15.375Z,998.54
2023-05-05T09:44:15.392Z,998.69
2023-05-05T09:45:15.367Z,998.70
2023-05-05T09:46:15.390Z,998.64
2023-05-05T09:47:28.588Z,998.58
2023-05-05T09:48:16.355Z,998.53
2023-05-05T09:49:15.347Z,998.56
2023-05-05T09:50:15.348Z,998.52
2023-05-05T09:51:15.325Z,998.61
2023-05-05T09:52:15.302Z,998.58
2023-05-05T09:53:15.322Z,998.60
2023-05-05T09:54:15.277Z,998.59
2023-05-05T09:55:15.240Z,998.58
2023-05-05T09:56:15.282Z,998.60
2023-05-05T09:57:15.259Z,998.62
2023-05-05T09:58:15.367Z,998.64
2023-05-05T09:59:15.221Z,998.58
2023-05-05T10:00:15.205Z,998.67
2023-05-05T10:01:15.249Z,998.65
2023-05-05T10:02:15.192Z,998.63
2023-05-05T10:03:15.219Z,998.54
2023-05-05T10:04:15.194Z,998.56
2023-05-05T10:05:15.175Z,998.49
2023-05-05T10:06:15.130Z,998.49
2023-05-05T10:07:15.324Z,998.45
2023-05-05T10:08:15.151Z,998.46
2023-05-05T10:09:15.141Z,998.41
2023-05-05T10:10:15.126Z,998.41
2023-05-05T10:11:15.075Z,998.38
2023-05-05T10:12:15.094Z,998.38
2023-05-05T10:13:15.151Z,998.42
2023-05-05T10:14:15.063Z,998.37
2023-05-05T10:15:15.045Z,998.36
2023-05-05T10:16:15.112Z,998.35
2023-05-05T10:17:15.020Z,998.37
2023-05-05T10:18:15.062Z,998.37
2023-05-05T10:19:15.053Z,998.30
2023-05-05T10:20:14.999Z,998.26
2023-05-05T10:21:14.991Z,998.24
2023-05-05T10:22:14.971Z,998.20
2023-05-05T10:23:14.976Z,998.16
2023-05-05T10:24:14.953Z,998.09
2023-05-05T10:25:14.985Z,998.12
2023-05-05T10:26:14.970Z,998.15
2023-05-05T10:27:14.918Z,998.12
2023-05-05T10:28:14.942Z,998.12
2023-05-05T10:29:14.900Z,998.13
2023-05-05T10:30:14.927Z,998.13
2023-05-05T10:31:25.253Z,998.07
2023-05-05T10:32:37.021Z,998.08
2023-05-05T10:33:31.023Z,998.10
2023-05-05T10:34:15.956Z,998.10
2023-05-05T10:35:14.874Z,998.08
2023-05-05T10:36:14.857Z,998.06
2023-05-05T10:37:14.827Z,998.06
2023-05-05T10:38:14.822Z,998.04
2023-05-05T10:39:14.811Z,997.98
2023-05-05T10:40:14.841Z,997.92
2023-05-05T10:41:14.805Z,997.92
2023-05-05T10:42:14.784Z,997.90
2023-05-05T10:43:14.774Z,997.82
2023-05-05T10:44:14.750Z,997.90
2023-05-05T10:45:14.776Z,997.88
2023-05-05T10:46:14.860Z,997.95
2023-05-05T10:47:14.743Z,997.92
2023-05-05T10:48:14.804Z,997.88
2023-05-05T10:49:14.745Z,997.83
2023-05-05T10:50:14.735Z,997.80
2023-05-05T10:51:21.131Z,997.81
2023-05-05T10:52:15.678Z,997.82
2023-05-05T10:53:14.669Z,997.80
2023-05-05T10:54:14.704Z,997.83
2023-05-05T10:55:14.669Z,997.82
2023-05-05T10:56:14.638Z,997.85
2023-05-05T10:57:14.654Z,997.80
2023-05-05T10:58:14.606Z,997.85
2023-05-05T10:59:14.756Z,997.75
2023-05-05T11:00:15.098Z,997.82
2023-05-05T11:01:14.657Z,997.77
2023-05-05T11:02:14.608Z,997.81
2023-05-05T11:03:14.711Z,997.87
2023-05-05T11:04:14.553Z,997.75
2023-05-05T11:05:14.594Z,997.84
2023-05-05T11:06:14.535Z,997.86
2023-05-05T11:07:15.088Z,997.80
2023-05-05T11:08:14.509Z,997.87
2023-05-05T11:09:14.504Z,997.84
2023-05-05T11:10:14.658Z,997.83
2023-05-05T11:11:14.482Z,997.82
2023-05-05T11:12:14.498Z,997.81
2023-05-05T11:13:14.499Z,997.83
2023-05-05T11:14:14.459Z,997.80
2023-05-05T11:15:14.529Z,997.78
2023-05-05T11:16:14.513Z,997.77
2023-05-05T11:17:14.439Z,997.76
2023-05-05T11:18:14.422Z,997.72
2023-05-05T11:19:14.395Z,997.69
2023-05-05T11:20:14.488Z,997.68
2023-05-05T11:21:14.404Z,997.66
2023-05-05T11:22:14.348Z,997.69
2023-05-05T11:23:16.559Z,997.72
2023-05-05T11:24:14.345Z,997.69
2023-05-05T11:25:14.431Z,997.67
2023-05-05T11:26:14.324Z,997.66
2023-05-05T11:27:14.310Z,997.57
2023-05-05T11:28:14.353Z,997.63
2023-05-05T11:29:14.278Z,997.62
2023-05-05T11:30:14.331Z,997.53
2023-05-05T11:31:14.319Z,997.57
2023-05-05T11:32:14.268Z,997.60
2023-05-05T11:33:14.343Z,997.61
2023-05-05T11:34:17.815Z,997.55
2023-05-05T11:35:14.264Z,997.58
2023-05-05T11:36:14.230Z,997.56
2023-05-05T11:37:14.181Z,997.58
2023-05-05T11:38:14.230Z,997.58
2023-05-05T11:39:14.193Z,997.56
2023-05-05T11:40:14.160Z,997.50
2023-05-05T11:41:14.172Z,997.51
2023-05-05T11:42:14.135Z,997.47
2023-05-05T11:43:14.136Z,997.49
2023-05-05T11:44:14.167Z,997.44
2023-05-05T11:45:14.138Z,997.46
2023-05-05T11:46:14.121Z,997.40
2023-05-05T11:47:14.081Z,997.48
2023-05-05T11:48:14.127Z,997.48
2023-05-05T11:49:14.085Z,997.54
2023-05-05T11:50:14.078Z,997.53
2023-05-05T11:51:14.047Z,997.52
2023-05-05T11:52:14.030Z,997.51
2023-05-05T11:53:14.023Z,997.51
2023-05-05T11:54:14.034Z,997.52
2023-05-05T11:55:14.033Z,997.52
2023-05-05T11:56:14.008Z,997.51
2023-05-05T11:57:13.973Z,997.50
2023-05-05T11:58:13.990Z,997.44
2023-05-05T11:59:13.948Z,997.48
2023-05-05T12:00:13.937Z,997.45
2023-05-05T12:01:13.988Z,997.44
2023-05-05T12:02:14.024Z,997.46
2023-05-05T12:03:13.958Z,997.46
2023-05-05T12:04:13.979Z,997.49
2023-05-05T12:05:13.919Z,997.44
2023-05-05T12:06:13.876Z,997.47
2023-05-05T12:07:13.935Z,997.51
2023-05-05T12:08:13.870Z,997.44
2023-05-05T12:09:13.855Z,997.44
2023-05-05T12:10:13.866Z,997.45
2023-05-05T12:11:13.869Z,997.39
2023-05-05T12:12:13.840Z,997.37
2023-05-05T12:13:13.856Z,997.36
2023-05-05T12:14:13.809Z,997.36
2023-05-05T12:15:13.835Z,997.36